Time;durP1;ratioP1;P1;durP2;ratioP2;P2;SDS_P1;SDS_P2;PMS_P1;PMS_P2;Temp;Humidity;BMP_temperature;BMP_pressure;BME280_temperature;BME280_humidity;BME280_pressure;Samples;Min_cycle;Max_cycle;Signal;HPM_P1;HPM_P2
2021/10/04 00:00:05;;;;;;;4.78;4.30;;;;;;;;;;5013382;28;20042;-82
2021/10/04 00:02:37;;;;;;;6.60;4.47;;;;;;;;;;5013755;28;20053;-82
2021/10/04 00:05:06;;;;;;;4.82;4.43;;;;;;;;;;5012916;28;20049;-82
2021/10/04 00:07:35;;;;;;;5.32;4.25;;;;;;;;;;5012615;28;20041;-73
2021/10/04 00:10:05;;;;;;;5.28;4.07;;;;;;;;;;5013082;28;20053;-75
2021/10/04 00:12:33;;;;;;;7.28;4.07;;;;;;;;;;5013195;28;20054;-82
2021/10/04 00:15:04;;;;;;;5.28;4.32;;;;;;;;;;5012233;28;20064;-82
2021/10/04 00:17:31;;;;;;;5.47;4.25;;;;;;;;;;4995585;28;20141;-74
2021/10/04 00:20:00;;;;;;;6.28;4.18;;;;;;;;;;5011364;28;20045;-83
2021/10/04 00:22:28;;;;;;;4.25;3.85;;;;;;;;;;4995539;28;20046;-73
2021/10/04 00:24:56;;;;;;;7.57;4.28;;;;;;;;;;5007964;28;20418;-82
2021/10/04 00:27:24;;;;;;;6.13;4.30;;;;;;;;;;5011284;28;20409;-72
2021/10/04 00:29:57;;;;;;;5.20;4.43;;;;;;;;;;5012857;28;20499;-82
2021/10/04 00:32:25;;;;;;;7.28;4.50;;;;;;;;;;5010845;28;20543;-73
2021/10/04 00:34:52;;;;;;;6.55;4.10;;;;;;;;;;5008069;28;20054;-73
2021/10/04 00:37:20;;;;;;;4.55;4.13;;;;;;;;;;5011287;28;20037;-82
2021/10/04 00:39:48;;;;;;;4.60;4.00;;;;;;;;;;5011820;28;20034;-82
2021/10/04 00:42:17;;;;;;;5.05;4.00;;;;;;;;;;5012644;28;20514;-76
2021/10/04 00:44:44;;;;;;;6.45;4.40;;;;;;;;;;5012522;28;20491;-82
2021/10/04 00:47:12;;;;;;;5.43;3.80;;;;;;;;;;5012431;28;20046;-81
2021/10/04 00:49:42;;;;;;;5.40;4.00;;;;;;;;;;5014840;28;20049;-77
2021/10/04 00:52:10;;;;;;;4.85;4.05;;;;;;;;;;5015448;28;20045;-77
2021/10/04 00:54:38;;;;;;;4.57;3.90;;;;;;;;;;5015466;28;20057;-76
2021/10/04 00:57:07;;;;;;;5.07;4.30;;;;;;;;;;5014885;28;20415;-82
2021/10/04 00:59:34;;;;;;;4.85;4.05;;;;;;;;;;5015169;28;20137;-73
2021/10/04 01:02:03;;;;;;;6.25;4.03;;;;;;;;;;5015969;28;20495;-74
2021/10/04 01:04:30;;;;;;;6.32;4.32;;;;;;;;;;5015255;28;20087;-75
2021/10/04 01:07:00;;;;;;;6.20;4.50;;;;;;;;;;5016257;28;20038;-82
2021/10/04 01:09:28;;;;;;;7.35;4.32;;;;;;;;;;5014871;28;20050;-77
2021/10/04 01:11:58;;;;;;;6.97;4.80;;;;;;;;;;5016022;28;20069;-72
2021/10/04 01:14:26;;;;;;;5.57;4.32;;;;;;;;;;5016237;28;20038;-82
2021/10/04 01:16:54;;;;;;;6.53;4.22;;;;;;;;;;5014755;28;20514;-73
2021/10/04 01:19:22;;;;;;;5.70;4.53;;;;;;;;;;5014533;28;20047;-76
2021/10/04 01:21:50;;;;;;;9.48;4.70;;;;;;;;;;5015767;28;20052;-77
2021/10/04 01:24:18;;;;;;;7.03;4.82;;;;;;;;;;5015653;28;20045;-74
2021/10/04 01:26:46;;;;;;;5.47;4.60;;;;;;;;;;5015796;28;20045;-82
2021/10/04 01:29:15;;;;;;;6.38;4.60;;;;;;;;;;5015835;28;20037;-74
2021/10/04 01:31:43;;;;;;;5.53;4.57;;;;;;;;;;5014005;28;20141;-72
2021/10/04 01:34:12;;;;;;;5.70;4.60;;;;;;;;;;5014647;28;20440;-83
2021/10/04 01:36:41;;;;;;;6.72;4.55;;;;;;;;;;5014611;28;20046;-76
2021/10/04 01:39:13;;;;;;;7.07;4.90;;;;;;;;;;5015973;28;20120;-76
2021/10/04 01:41:41;;;;;;;5.45;4.93;;;;;;;;;;5015863;28;20129;-75
2021/10/04 01:44:09;;;;;;;5.07;4.40;;;;;;;;;;5014207;28;20046;-73
2021/10/04 01:46:37;;;;;;;7.45;4.72;;;;;;;;;;5015088;28;20517;-82
2021/10/04 01:49:05;;;;;;;5.25;4.45;;;;;;;;;;5015130;28;20495;-74
2021/10/04 01:51:33;;;;;;;8.15;4.80;;;;;;;;;;5014190;28;20058;-72
2021/10/04 01:54:01;;;;;;;5.00;4.50;;;;;;;;;;5015647;28;20137;-74
2021/10/04 01:56:29;;;;;;;5.75;4.57;;;;;;;;;;5014053;28;20467;-74
2021/10/04 01:58:57;;;;;;;6.90;4.72;;;;;;;;;;5014433;28;20410;-79
2021/10/04 02:01:25;;;;;;;6.10;4.75;;;;;;;;;;5014826;28;20145;-74
2021/10/04 02:03:54;;;;;;;6.75;4.53;;;;;;;;;;5013530;28;20128;-76
2021/10/04 02:06:23;;;;;;;8.32;4.95;;;;;;;;;;5013638;28;20046;-74
2021/10/04 02:08:52;;;;;;;8.13;4.90;;;;;;;;;;5014788;28;20461;-72
2021/10/04 02:11:20;;;;;;;6.53;4.88;;;;;;;;;;5015195;28;20044;-73
2021/10/04 02:13:48;;;;;;;6.45;4.75;;;;;;;;;;5014407;28;20130;-82
2021/10/04 02:16:18;;;;;;;5.07;4.57;;;;;;;;;;5014837;28;20042;-77
2021/10/04 02:18:46;;;;;;;6.32;4.40;;;;;;;;;;5014822;28;20037;-77
2021/10/04 02:21:15;;;;;;;5.32;4.82;;;;;;;;;;5014771;28;20473;-72
2021/10/04 02:23:42;;;;;;;7.18;4.88;;;;;;;;;;5013216;28;20053;-84
2021/10/04 02:26:10;;;;;;;7.90;5.07;;;;;;;;;;5014498;28;20046;-84
2021/10/04 02:28:38;;;;;;;6.45;4.75;;;;;;;;;;5013389;28;20041;-79
2021/10/04 02:31:08;;;;;;;7.03;5.20;;;;;;;;;;5014611;28;20590;-78
2021/10/04 02:33:36;;;;;;;6.25;4.85;;;;;;;;;;5014528;28;20041;-79
2021/10/04 02:36:04;;;;;;;8.15;5.03;;;;;;;;;;5013507;28;20052;-76
2021/10/04 02:38:31;;;;;;;5.82;5.22;;;;;;;;;;5013439;28;20539;-75
2021/10/04 02:40:59;;;;;;;5.80;5.10;;;;;;;;;;4996844;28;20060;-75
2021/10/04 02:43:27;;;;;;;11.30;5.53;;;;;;;;;;4996360;28;20132;-77
2021/10/04 02:45:55;;;;;;;6.40;5.18;;;;;;;;;;5013056;28;20042;-77
2021/10/04 02:48:25;;;;;;;9.15;5.05;;;;;;;;;;5012399;28;20050;-75
2021/10/04 02:50:53;;;;;;;8.13;5.40;;;;;;;;;;4996474;28;20463;-76
2021/10/04 02:53:21;;;;;;;5.75;4.53;;;;;;;;;;5013217;28;20034;-79
2021/10/04 02:55:49;;;;;;;7.88;5.10;;;;;;;;;;5014249;28;20038;-78
2021/10/04 02:58:19;;;;;;;8.65;5.03;;;;;;;;;;5013621;28;20045;-77
2021/10/04 03:00:47;;;;;;;6.20;5.07;;;;;;;;;;4996995;28;20463;-84
2021/10/04 03:03:15;;;;;;;7.55;5.13;;;;;;;;;;5014359;28;20049;-76
2021/10/04 03:05:43;;;;;;;7.30;5.10;;;;;;;;;;5014028;28;20403;-79
2021/10/04 03:08:10;;;;;;;7.15;4.97;;;;;;;;;;5013998;28;20045;-83
2021/10/04 03:10:37;;;;;;;9.52;5.40;;;;;;;;;;5013617;28;20038;-76
2021/10/04 03:13:06;;;;;;;8.55;5.07;;;;;;;;;;5013540;28;20116;-84
2021/10/04 03:15:35;;;;;;;7.03;4.95;;;;;;;;;;4996881;28;20067;-76
2021/10/04 03:18:04;;;;;;;13.05;6.00;;;;;;;;;;5013030;28;20491;-75
2021/10/04 03:20:34;;;;;;;8.18;5.18;;;;;;;;;;5013287;28;20052;-85
2021/10/04 03:23:01;;;;;;;9.10;5.20;;;;;;;;;;5014164;28;20096;-84
2021/10/04 03:25:30;;;;;;;9.13;5.25;;;;;;;;;;5014542;28;20052;-84
2021/10/04 03:27:57;;;;;;;7.07;5.50;;;;;;;;;;5013176;28;20100;-77
2021/10/04 03:30:27;;;;;;;8.32;5.40;;;;;;;;;;5014340;28;20069;-79
2021/10/04 03:32:57;;;;;;;12.25;5.47;;;;;;;;;;5012301;28;20073;-79
2021/10/04 03:35:26;;;;;;;7.15;5.00;;;;;;;;;;5012441;28;20046;-75
2021/10/04 03:37:55;;;;;;;5.75;4.63;;;;;;;;;;5012667;28;20042;-74
2021/10/04 03:40:23;;;;;;;10.38;5.88;;;;;;;;;;5013610;28;20070;-76
2021/10/04 03:42:52;;;;;;;6.85;5.00;;;;;;;;;;5013365;28;20411;-85
2021/10/04 03:45:20;;;;;;;7.13;4.97;;;;;;;;;;5013332;28;20038;-77
2021/10/04 03:47:48;;;;;;;7.63;5.22;;;;;;;;;;5011748;28;20038;-80
2021/10/04 03:50:17;;;;;;;9.25;5.32;;;;;;;;;;5013781;28;20116;-82
2021/10/04 03:52:45;;;;;;;6.10;4.85;;;;;;;;;;5012407;28;20038;-74
2021/10/04 03:55:16;;;;;;;8.30;5.03;;;;;;;;;;5011782;28;20129;-73
2021/10/04 03:57:45;;;;;;;7.10;5.60;;;;;;;;;;5012098;28;20046;-75
2021/10/04 04:00:19;;;;;;;8.02;5.65;;;;;;;;;;5012279;28;20076;-79
2021/10/04 04:02:46;;;;;;;8.45;5.95;;;;;;;;;;5013321;28;20081;-80
2021/10/04 04:05:14;;;;;;;7.95;5.60;;;;;;;;;;5011768;28;20046;-75
2021/10/04 04:07:43;;;;;;;8.23;6.05;;;;;;;;;;4995075;28;20049;-76
2021/10/04 04:10:11;;;;;;;10.00;6.18;;;;;;;;;;5011752;28;20034;-78
2021/10/04 04:12:40;;;;;;;12.70;6.50;;;;;;;;;;5012653;28;20065;-79
2021/10/04 04:15:09;;;;;;;11.43;6.13;;;;;;;;;;5012632;28;20090;-74
2021/10/04 04:17:37;;;;;;;10.32;6.30;;;;;;;;;;5013106;28;20552;-76
2021/10/04 04:20:05;;;;;;;9.13;6.28;;;;;;;;;;5012723;28;20049;-78
2021/10/04 04:22:34;;;;;;;10.57;6.45;;;;;;;;;;5013752;28;20074;-74
2021/10/04 04:25:03;;;;;;;6.45;5.70;;;;;;;;;;5015277;28;20136;-76
2021/10/04 04:27:34;;;;;;;6.75;5.63;;;;;;;;;;4999848;28;20475;-79
2021/10/04 04:30:07;;;;;;;9.07;6.10;;;;;;;;;;5015776;28;20069;-78
2021/10/04 04:32:35;;;;;;;11.60;5.95;;;;;;;;;;5000025;28;20038;-84
2021/10/04 04:35:06;;;;;;;8.98;6.00;;;;;;;;;;5015928;28;20045;-77
2021/10/04 04:37:34;;;;;;;9.38;6.03;;;;;;;;;;5016807;28;20042;-75
2021/10/04 04:40:03;;;;;;;9.10;5.85;;;;;;;;;;5016161;28;20050;-75
2021/10/04 04:42:32;;;;;;;8.60;6.40;;;;;;;;;;5015422;28;20049;-79
2021/10/04 04:44:59;;;;;;;8.30;5.80;;;;;;;;;;4999013;28;20511;-75
2021/10/04 04:47:27;;;;;;;10.90;6.25;;;;;;;;;;5015323;28;20484;-76
2021/10/04 04:49:55;;;;;;;7.45;5.70;;;;;;;;;;5014908;28;20061;-83
2021/10/04 04:52:23;;;;;;;9.10;6.60;;;;;;;;;;5015431;28;20459;-79
2021/10/04 04:54:52;;;;;;;10.02;6.50;;;;;;;;;;5015006;28;20037;-83
2021/10/04 04:57:19;;;;;;;9.45;7.00;;;;;;;;;;5015385;28;20034;-75
2021/10/04 04:59:47;;;;;;;10.55;6.10;;;;;;;;;;5016610;28;20048;-75
2021/10/04 05:02:14;;;;;;;11.77;6.63;;;;;;;;;;5016381;28;20121;-83
2021/10/04 05:04:42;;;;;;;9.27;6.57;;;;;;;;;;5016438;28;20042;-77
2021/10/04 05:07:09;;;;;;;9.20;6.07;;;;;;;;;;4998995;28;20388;-75
2021/10/04 05:09:37;;;;;;;7.88;6.18;;;;;;;;;;4998050;28;20052;-83
2021/10/04 05:12:05;;;;;;;8.85;5.90;;;;;;;;;;5016181;28;20475;-78
2021/10/04 05:14:33;;;;;;;9.02;5.95;;;;;;;;;;5015140;28;20517;-75
2021/10/04 05:17:00;;;;;;;8.88;5.40;;;;;;;;;;5016322;28;20042;-75
2021/10/04 05:19:28;;;;;;;11.02;5.72;;;;;;;;;;5015434;28;20041;-83
2021/10/04 05:21:56;;;;;;;7.63;4.95;;;;;;;;;;5030786;28;20069;-77
2021/10/04 05:24:26;;;;;;;6.80;5.15;;;;;;;;;;5015070;28;20050;-75
2021/10/04 05:26:56;;;;;;;10.20;4.88;;;;;;;;;;5001559;28;20140;-84
2021/10/04 05:29:25;;;;;;;8.23;4.80;;;;;;;;;;4978848;28;20415;-75
2021/10/04 05:31:55;;;;;;;6.55;5.40;;;;;;;;;;4996114;28;20034;-76
2021/10/04 05:34:26;;;;;;;15.30;8.70;;;;;;;;;;4994399;28;20039;-79
2021/10/04 05:36:53;;;;;;;32.42;25.52;;;;;;;;;;4986358;28;20053;-83
2021/10/04 05:39:21;;;;;;;27.25;20.00;;;;;;;;;;5015845;28;20130;-76
2021/10/04 05:41:49;;;;;;;39.10;25.08;;;;;;;;;;5015369;28;20052;-75
2021/10/04 05:44:16;;;;;;;41.67;34.35;;;;;;;;;;5015498;28;20041;-78
2021/10/04 05:46:44;;;;;;;40.50;27.98;;;;;;;;;;5015083;28;20447;-78
2021/10/04 05:49:12;;;;;;;51.75;38.05;;;;;;;;;;5014931;28;20049;-84
2021/10/04 05:51:39;;;;;;;56.08;38.40;;;;;;;;;;5015410;28;20041;-79
2021/10/04 05:54:06;;;;;;;28.55;18.55;;;;;;;;;;5015184;28;20048;-84
2021/10/04 05:56:34;;;;;;;24.40;16.50;;;;;;;;;;5015570;28;20472;-77
2021/10/04 05:59:01;;;;;;;20.17;14.85;;;;;;;;;;5016422;28;20037;-77
2021/10/04 06:01:31;;;;;;;24.25;18.10;;;;;;;;;;5015110;28;20048;-86
2021/10/04 06:03:58;;;;;;;29.15;20.08;;;;;;;;;;5014891;28;20038;-76
2021/10/04 06:06:27;;;;;;;40.72;27.58;;;;;;;;;;5014364;28;20406;-76
2021/10/04 06:08:57;;;;;;;29.17;18.48;;;;;;;;;;5014819;28;20681;-78
2021/10/04 06:11:25;;;;;;;21.60;13.18;;;;;;;;;;5013944;28;20042;-76
2021/10/04 06:13:53;;;;;;;17.73;10.43;;;;;;;;;;5013636;28;20053;-81
2021/10/04 06:16:21;;;;;;;12.95;9.93;;;;;;;;;;5013924;28;20052;-73
2021/10/04 06:18:52;;;;;;;12.23;8.85;;;;;;;;;;5015018;28;20038;-79
2021/10/04 06:21:20;;;;;;;17.17;12.32;;;;;;;;;;5013954;28;20116;-73
2021/10/04 06:23:47;;;;;;;28.25;19.45;;;;;;;;;;5013347;28;20219;-81
2021/10/04 06:26:15;;;;;;;27.52;21.13;;;;;;;;;;5014602;28;20045;-78
2021/10/04 06:28:43;;;;;;;34.20;21.83;;;;;;;;;;5013063;28;20162;-85
2021/10/04 06:31:11;;;;;;;40.40;27.40;;;;;;;;;;5014326;28;20042;-86
2021/10/04 06:33:41;;;;;;;26.58;18.95;;;;;;;;;;5015103;28;20439;-76
2021/10/04 06:36:11;;;;;;;25.85;17.05;;;;;;;;;;4996740;28;20518;-82
2021/10/04 06:38:38;;;;;;;9.13;6.30;;;;;;;;;;5014322;28;20042;-86
2021/10/04 06:41:07;;;;;;;9.77;4.70;;;;;;;;;;5029415;28;20037;-80
2021/10/04 06:43:34;;;;;;;5.75;4.70;;;;;;;;;;5013070;28;20116;-86
2021/10/04 06:46:07;;;;;;;8.63;5.32;;;;;;;;;;5014273;28;20038;-77
2021/10/04 06:48:39;;;;;;;7.18;4.30;;;;;;;;;;5014130;28;20054;-85
2021/10/04 06:51:09;;;;;;;8.25;4.03;;;;;;;;;;5013451;28;20056;-76
2021/10/04 06:53:36;;;;;;;4.40;3.75;;;;;;;;;;5029007;28;20487;-77
2021/10/04 06:56:04;;;;;;;5.70;3.90;;;;;;;;;;5029025;28;20049;-81
2021/10/04 06:58:31;;;;;;;5.28;3.92;;;;;;;;;;5014112;28;20048;-86
2021/10/04 07:01:03;;;;;;;4.00;2.80;;;;;;;;;;5029396;28;20053;-85
2021/10/04 07:03:32;;;;;;;5.63;3.50;;;;;;;;;;5013723;28;20046;-85
2021/10/04 07:06:00;;;;;;;5.88;3.30;;;;;;;;;;5028625;28;20045;-79
2021/10/04 07:08:28;;;;;;;4.32;3.17;;;;;;;;;;5028566;28;20073;-75
2021/10/04 07:10:55;;;;;;;5.40;3.17;;;;;;;;;;5013633;28;20129;-85
2021/10/04 07:13:23;;;;;;;4.72;3.40;;;;;;;;;;5028956;28;20113;-82
2021/10/04 07:15:51;;;;;;;4.00;3.30;;;;;;;;;;5013987;28;20666;-85
2021/10/04 07:18:18;;;;;;;3.25;2.95;;;;;;;;;;5028703;28;20046;-75
2021/10/04 07:20:46;;;;;;;2.97;2.67;;;;;;;;;;5013478;28;20569;-75
2021/10/04 07:23:17;;;;;;;5.65;3.00;;;;;;;;;;5013219;28;20052;-84
2021/10/04 07:25:44;;;;;;;9.55;3.97;;;;;;;;;;5012185;28;20070;-81
2021/10/04 07:28:12;;;;;;;5.28;3.83;;;;;;;;;;5013513;28;20042;-77
2021/10/04 07:30:40;;;;;;;5.78;3.33;;;;;;;;;;5012307;28;20076;-81
2021/10/04 07:33:08;;;;;;;4.88;3.25;;;;;;;;;;5013326;28;20038;-76
2021/10/04 07:36:04;;;;;;;7.40;4.30;;;;;;;;;;5013000;28;20498;-85
2021/10/04 07:38:33;;;;;;;3.85;3.10;;;;;;;;;;5013084;28;20044;-73
2021/10/04 07:41:01;;;;;;;4.45;3.42;;;;;;;;;;5028302;28;20486;-79
2021/10/04 07:43:31;;;;;;;4.63;3.28;;;;;;;;;;5012969;28;20042;-75
2021/10/04 07:45:58;;;;;;;5.35;3.20;;;;;;;;;;5013505;28;20157;-78
2021/10/04 07:48:26;;;;;;;5.03;3.28;;;;;;;;;;5012525;28;20136;-73
2021/10/04 07:50:53;;;;;;;3.70;3.10;;;;;;;;;;5028492;28;20039;-73
2021/10/04 07:53:21;;;;;;;4.40;3.03;;;;;;;;;;4995669;28;20141;-73
2021/10/04 07:55:48;;;;;;;4.07;3.00;;;;;;;;;;5028257;28;20052;-83
2021/10/04 07:58:16;;;;;;;4.68;3.40;;;;;;;;;;5012731;28;20410;-73
2021/10/04 08:00:44;;;;;;;4.78;3.10;;;;;;;;;;5013204;28;20506;-73
2021/10/04 08:03:12;;;;;;;5.40;3.65;;;;;;;;;;5027089;28;20044;-82
2021/10/04 08:05:40;;;;;;;3.38;3.08;;;;;;;;;;5013170;28;20124;-83
2021/10/04 08:08:07;;;;;;;4.15;2.85;;;;;;;;;;5011862;28;20042;-74
2021/10/04 08:10:35;;;;;;;4.60;3.65;;;;;;;;;;5011571;28;20042;-82
2021/10/04 08:13:05;;;;;;;3.65;3.10;;;;;;;;;;5013149;28;20042;-75
2021/10/04 08:15:33;;;;;;;6.43;3.38;;;;;;;;;;5013136;28;20499;-85
2021/10/04 08:18:03;;;;;;;3.83;3.30;;;;;;;;;;5013208;28;20121;-75
2021/10/04 08:20:32;;;;;;;5.07;3.60;;;;;;;;;;5027967;28;20053;-85
2021/10/04 08:23:00;;;;;;;5.15;3.28;;;;;;;;;;5028047;28;20125;-75
2021/10/04 08:25:27;;;;;;;4.63;2.85;;;;;;;;;;5028184;28;20053;-79
2021/10/04 08:27:59;;;;;;;3.55;3.25;;;;;;;;;;5012744;28;20124;-75
2021/10/04 08:30:27;;;;;;;3.60;3.20;;;;;;;;;;5012721;28;20044;-75
2021/10/04 08:32:57;;;;;;;4.30;3.38;;;;;;;;;;5012471;28;20399;-74
2021/10/04 08:35:24;;;;;;;4.03;3.28;;;;;;;;;;5012729;28;20038;-74
2021/10/04 08:37:54;;;;;;;4.97;3.38;;;;;;;;;;5012631;28;20060;-79
2021/10/04 08:40:22;;;;;;;4.93;3.17;;;;;;;;;;5013207;28;20071;-83
2021/10/04 08:42:50;;;;;;;3.03;2.70;;;;;;;;;;5030057;28;20046;-72
2021/10/04 08:45:18;;;;;;;3.47;2.80;;;;;;;;;;5027378;28;20070;-75
2021/10/04 08:47:47;;;;;;;5.00;3.20;;;;;;;;;;5012499;28;20046;-74
2021/10/04 08:50:18;;;;;;;5.05;3.70;;;;;;;;;;5011581;28;20507;-84
2021/10/04 08:52:45;;;;;;;3.83;3.28;;;;;;;;;;5027996;28;20497;-75
2021/10/04 08:55:13;;;;;;;5.82;3.97;;;;;;;;;;5012703;28;20038;-75
2021/10/04 08:57:42;;;;;;;6.53;3.97;;;;;;;;;;5028060;28;20128;-74
2021/10/04 09:00:10;;;;;;;6.13;3.60;;;;;;;;;;5027347;28;20053;-83
2021/10/04 09:02:38;;;;;;;6.05;3.42;;;;;;;;;;5011737;28;20113;-77
2021/10/04 09:05:15;;;;;;;5.65;4.03;;;;;;;;;;5029831;28;20049;-78
2021/10/04 09:07:45;;;;;;;7.55;3.75;;;;;;;;;;5012555;28;20402;-77
2021/10/04 09:10:16;;;;;;;5.40;4.15;;;;;;;;;;5031236;28;20083;-81
2021/10/04 09:12:45;;;;;;;7.63;3.60;;;;;;;;;;5032509;28;20042;-77
2021/10/04 09:15:23;;;;;;;7.70;3.90;;;;;;;;;;5031133;28;20045;-80
2021/10/04 09:17:56;;;;;;;4.90;3.92;;;;;;;;;;5031532;28;20046;-86
2021/10/04 09:20:26;;;;;;;6.50;3.75;;;;;;;;;;5015708;28;20129;-77
2021/10/04 09:22:54;;;;;;;6.05;3.63;;;;;;;;;;5031353;28;20441;-75
2021/10/04 09:25:22;;;;;;;6.38;3.92;;;;;;;;;;5016141;28;20046;-75
2021/10/04 09:27:49;;;;;;;4.40;3.88;;;;;;;;;;5014938;28;20050;-75
2021/10/04 09:30:23;;;;;;;4.78;3.90;;;;;;;;;;5015342;28;20042;-77
2021/10/04 09:32:52;;;;;;;5.95;3.58;;;;;;;;;;5030881;28;20061;-75
2021/10/04 09:35:22;;;;;;;5.70;4.00;;;;;;;;;;5030370;28;20042;-81
2021/10/04 09:37:52;;;;;;;6.50;4.00;;;;;;;;;;5015557;28;20112;-75
2021/10/04 09:40:32;;;;;;;5.55;4.07;;;;;;;;;;5030623;28;20045;-75
2021/10/04 09:43:02;;;;;;;8.10;3.85;;;;;;;;;;5030221;28;20565;-86
2021/10/04 09:45:31;;;;;;;6.68;4.00;;;;;;;;;;5031510;28;20053;-87
2021/10/04 09:48:07;;;;;;;5.15;3.92;;;;;;;;;;5014497;28;20065;-80
2021/10/04 09:50:38;;;;;;;5.25;3.72;;;;;;;;;;5030697;28;20499;-75
2021/10/04 09:53:09;;;;;;;4.32;3.42;;;;;;;;;;5015406;28;20041;-80
2021/10/04 09:55:37;;;;;;;4.15;3.58;;;;;;;;;;5014925;28;20042;-86
2021/10/04 09:58:18;;;;;;;5.05;3.15;;;;;;;;;;5016255;28;20392;-81
2021/10/04 10:00:53;;;;;;;5.18;3.47;;;;;;;;;;5014859;28;20050;-77
2021/10/04 10:03:22;;;;;;;4.82;3.13;;;;;;;;;;5016246;28;20435;-86
2021/10/04 10:05:53;;;;;;;6.05;3.15;;;;;;;;;;5015769;28;20077;-80
2021/10/04 10:08:22;;;;;;;4.38;3.55;;;;;;;;;;5015878;28;20041;-77
2021/10/04 10:10:53;;;;;;;4.15;3.70;;;;;;;;;;5013228;28;20042;-77
2021/10/04 10:13:24;;;;;;;5.65;3.30;;;;;;;;;;5015522;28;20034;-75
2021/10/04 10:16:03;;;;;;;3.63;3.15;;;;;;;;;;5016003;28;20065;-86
2021/10/04 10:18:49;;;;;;;5.80;3.30;;;;;;;;;;5013519;28;20423;-86
2021/10/04 10:21:20;;;;;;;4.22;3.47;;;;;;;;;;5015099;28;20101;-86
2021/10/04 10:23:48;;;;;;;4.18;3.30;;;;;;;;;;5031007;28;20052;-85
2021/10/04 10:26:26;;;;;;;4.55;4.10;;;;;;;;;;5030288;28;20418;-80
2021/10/04 10:29:30;;;;;;;6.53;4.22;;;;;;;;;;5030669;28;20046;-78
2021/10/04 10:31:57;;;;;;;6.70;3.97;;;;;;;;;;4973122;28;20051;-77
2021/10/04 10:34:31;;;;;;;5.75;3.90;;;;;;;;;;4941650;28;20055;-75
2021/10/04 10:37:13;;;;;;;4.88;4.05;;;;;;;;;;4973267;28;20101;-75
2021/10/04 10:39:47;;;;;;;6.85;4.07;;;;;;;;;;4973629;28;20051;-77
2021/10/04 10:42:26;;;;;;;4.97;4.00;;;;;;;;;;4956383;28;20043;-81
2021/10/04 10:44:57;;;;;;;6.57;4.15;;;;;;;;;;4974482;28;20057;-82
2021/10/04 10:47:51;;;;;;;5.55;3.95;;;;;;;;;;4972942;28;20133;-80
2021/10/04 10:50:32;;;;;;;7.03;4.63;;;;;;;;;;4971184;28;20066;-80
2021/10/04 10:52:59;;;;;;;6.20;3.90;;;;;;;;;;4956743;28;20401;-76
2021/10/04 10:55:35;;;;;;;5.63;4.03;;;;;;;;;;4973097;28;20126;-76
2021/10/04 10:58:15;;;;;;;8.77;3.88;;;;;;;;;;4972767;28;20511;-85
2021/10/04 11:01:04;;;;;;;5.28;4.10;;;;;;;;;;4973198;28;20098;-86
2021/10/04 11:03:49;;;;;;;8.73;3.67;;;;;;;;;;4941617;28;20503;-85
2021/10/04 11:06:18;;;;;;;6.22;3.80;;;;;;;;;;4973764;28;20092;-74
2021/10/04 11:08:50;;;;;;;4.22;3.78;;;;;;;;;;5013800;28;20050;-80
2021/10/04 11:11:36;;;;;;;5.20;4.45;;;;;;;;;;5013965;28;20525;-77
2021/10/04 11:14:14;;;;;;;5.75;4.05;;;;;;;;;;5013453;28;20121;-86
2021/10/04 11:16:47;;;;;;;6.68;3.83;;;;;;;;;;5015372;28;20053;-76
2021/10/04 11:19:26;;;;;;;7.72;4.40;;;;;;;;;;5029219;28;20046;-74
2021/10/04 11:21:54;;;;;;;6.07;4.05;;;;;;;;;;5012421;28;20096;-85
2021/10/04 11:24:28;;;;;;;6.15;4.13;;;;;;;;;;5027953;28;20096;-86
2021/10/04 11:27:00;;;;;;;5.25;4.03;;;;;;;;;;5013720;28;20050;-76
2021/10/04 11:29:27;;;;;;;8.27;4.53;;;;;;;;;;5028669;28;20128;-75
2021/10/04 11:31:58;;;;;;;9.80;4.30;;;;;;;;;;5028318;28;20038;-79
2021/10/04 11:34:30;;;;;;;7.45;4.53;;;;;;;;;;5012524;28;20423;-86
2021/10/04 11:37:01;;;;;;;8.75;4.20;;;;;;;;;;5012071;28;20084;-77
2021/10/04 11:39:36;;;;;;;4.13;3.72;;;;;;;;;;5028242;28;20039;-80
2021/10/04 11:42:08;;;;;;;5.80;4.00;;;;;;;;;;5014153;28;20049;-74
2021/10/04 11:44:39;;;;;;;5.30;4.20;;;;;;;;;;5014148;28;20077;-77
2021/10/04 11:47:15;;;;;;;4.55;4.15;;;;;;;;;;5014210;28;20116;-82
2021/10/04 11:49:52;;;;;;;6.65;4.32;;;;;;;;;;4991407;28;20057;-74
2021/10/04 11:52:21;;;;;;;6.85;3.80;;;;;;;;;;4993637;28;20138;-72
2021/10/04 11:54:50;;;;;;;4.40;4.00;;;;;;;;;;4993098;28;20041;-72
2021/10/04 11:57:18;;;;;;;5.57;4.00;;;;;;;;;;4993563;28;20035;-72
2021/10/04 11:59:46;;;;;;;4.80;4.00;;;;;;;;;;4993341;28;20034;-75
2021/10/04 12:02:23;;;;;;;6.50;4.13;;;;;;;;;;4993334;28;20379;-74
2021/10/04 12:05:16;;;;;;;7.35;3.67;;;;;;;;;;4993312;28;20121;-73
2021/10/04 12:08:00;;;;;;;6.45;4.07;;;;;;;;;;4993297;28;20050;-75
2021/10/04 12:10:54;;;;;;;5.40;3.80;;;;;;;;;;4992876;28;20058;-74
2021/10/04 12:13:23;;;;;;;4.93;3.80;;;;;;;;;;4994052;28;20045;-75
2021/10/04 12:15:53;;;;;;;5.35;4.05;;;;;;;;;;4993639;28;20041;-74
2021/10/04 12:18:27;;;;;;;4.43;4.00;;;;;;;;;;4993507;28;20073;-74
2021/10/04 12:21:15;;;;;;;4.00;3.60;;;;;;;;;;4992149;28;20074;-74
2021/10/04 12:23:43;;;;;;;8.25;3.50;;;;;;;;;;4991727;28;20051;-73
2021/10/04 12:26:12;;;;;;;5.35;3.90;;;;;;;;;;4975888;28;20050;-73
2021/10/04 12:28:47;;;;;;;5.75;3.83;;;;;;;;;;4992034;28;20056;-75
2021/10/04 12:31:15;;;;;;;;;;;;;;;;;;4993696;28;20038;-74
2021/10/04 12:33:45;;;;;;;4.22;3.80;;;;;;;;;;4992164;28;20390;-73
2021/10/04 12:36:12;;;;;;;5.03;3.50;;;;;;;;;;4993281;28;20044;-75
2021/10/04 12:38:50;;;;;;;6.18;3.92;;;;;;;;;;4992719;28;20046;-72
2021/10/04 12:41:19;;;;;;;4.55;3.90;;;;;;;;;;4992779;28;20221;-75
2021/10/04 12:43:48;;;;;;;5.32;3.50;;;;;;;;;;4995809;28;20048;-75
2021/10/04 12:46:19;;;;;;;4.78;3.60;;;;;;;;;;4995460;28;20054;-75
2021/10/04 12:48:47;;;;;;;8.38;4.18;;;;;;;;;;4990921;28;20063;-75
2021/10/04 12:51:16;;;;;;;5.40;3.83;;;;;;;;;;4977740;28;20045;-73
2021/10/04 12:53:53;;;;;;;7.05;4.50;;;;;;;;;;4984857;28;20042;-74
2021/10/04 12:56:23;;;;;;;5.05;3.90;;;;;;;;;;4997143;28;20049;-75
2021/10/04 12:59:04;;;;;;;4.28;3.67;;;;;;;;;;4996998;28;20070;-74
2021/10/04 13:01:32;;;;;;;5.50;3.80;;;;;;;;;;4995336;28;20050;-75
2021/10/04 13:04:02;;;;;;;5.18;4.05;;;;;;;;;;4995782;28;20046;-75
2021/10/04 13:06:34;;;;;;;9.38;4.10;;;;;;;;;;4996603;28;20051;-74
2021/10/04 13:09:04;;;;;;;4.57;3.75;;;;;;;;;;4996844;28;20122;-74
2021/10/04 13:11:35;;;;;;;6.30;3.90;;;;;;;;;;4996701;28;20117;-74
2021/10/04 13:14:04;;;;;;;5.28;4.00;;;;;;;;;;4968414;28;20279;-72
2021/10/04 13:16:35;;;;;;;4.35;3.33;;;;;;;;;;4978039;28;20504;-76
2021/10/04 13:19:27;;;;;;;6.57;3.72;;;;;;;;;;4995335;28;20587;-76
2021/10/04 13:21:56;;;;;;;6.18;3.97;;;;;;;;;;4995531;28;20042;-75
2021/10/04 13:24:23;;;;;;;6.63;3.72;;;;;;;;;;4995502;28;20145;-75
2021/10/04 13:26:51;;;;;;;8.05;4.05;;;;;;;;;;4994116;28;20629;-75
2021/10/04 13:29:18;;;;;;;9.43;3.83;;;;;;;;;;4995256;28;20101;-75
2021/10/04 13:31:46;;;;;;;4.55;3.60;;;;;;;;;;4996189;28;20070;-75
2021/10/04 13:34:17;;;;;;;5.45;4.22;;;;;;;;;;4995338;28;20121;-75
2021/10/04 13:36:45;;;;;;;5.55;4.00;;;;;;;;;;4996521;28;20042;-75
2021/10/04 13:39:15;;;;;;;4.75;3.75;;;;;;;;;;4994837;28;20399;-74
2021/10/04 13:41:46;;;;;;;3.70;3.20;;;;;;;;;;4995109;28;20463;-77
2021/10/04 13:44:15;;;;;;;7.97;3.83;;;;;;;;;;4996150;28;20038;-75
2021/10/04 13:46:42;;;;;;;5.28;3.63;;;;;;;;;;4996036;28;20475;-77
2021/10/04 13:49:11;;;;;;;6.38;4.20;;;;;;;;;;4995782;28;20129;-73
2021/10/04 13:51:46;;;;;;;6.47;3.78;;;;;;;;;;4996319;28;20038;-77
2021/10/04 13:54:13;;;;;;;4.97;3.65;;;;;;;;;;4994987;28;20125;-77
2021/10/04 13:56:42;;;;;;;6.43;3.63;;;;;;;;;;4995378;28;20042;-74
2021/10/04 13:59:10;;;;;;;5.25;3.67;;;;;;;;;;4995230;28;20113;-74
2021/10/04 14:01:38;;;;;;;6.30;3.95;;;;;;;;;;4994330;28;20042;-73
2021/10/04 14:04:32;;;;;;;4.78;4.07;;;;;;;;;;4995206;28;20046;-76
2021/10/04 14:06:59;;;;;;;5.03;3.70;;;;;;;;;;4995394;28;20579;-79
2021/10/04 14:09:30;;;;;;;4.88;3.97;;;;;;;;;;4995872;28;20038;-73
2021/10/04 14:12:06;;;;;;;4.82;3.72;;;;;;;;;;4995256;28;20050;-75
2021/10/04 14:14:33;;;;;;;6.32;3.95;;;;;;;;;;4995142;28;20088;-75
2021/10/04 14:17:01;;;;;;;4.15;3.47;;;;;;;;;;4995055;28;20035;-74
2021/10/04 14:19:35;;;;;;;5.20;3.60;;;;;;;;;;4982373;28;20097;-73
2021/10/04 14:22:04;;;;;;;5.65;3.80;;;;;;;;;;4992923;28;20046;-75
2021/10/04 14:24:31;;;;;;;5.85;3.80;;;;;;;;;;4991813;28;20050;-77
2021/10/04 14:27:00;;;;;;;4.95;3.70;;;;;;;;;;4975871;28;20126;-73
2021/10/04 14:29:31;;;;;;;4.53;3.78;;;;;;;;;;4975980;28;20043;-72
2021/10/04 14:31:59;;;;;;;7.10;4.47;;;;;;;;;;4975764;28;20031;-73
2021/10/04 14:34:30;;;;;;;6.63;3.38;;;;;;;;;;4980418;28;20120;-75
2021/10/04 14:37:01;;;;;;;9.55;3.85;;;;;;;;;;4975227;28;20070;-74
2021/10/04 14:39:31;;;;;;;5.78;3.78;;;;;;;;;;4977061;28;20045;-72
2021/10/04 14:41:59;;;;;;;3.42;3.13;;;;;;;;;;4976744;28;20129;-75
2021/10/04 14:44:26;;;;;;;6.40;3.70;;;;;;;;;;4986802;28;20050;-74
2021/10/04 14:46:54;;;;;;;4.45;3.67;;;;;;;;;;4988097;28;20050;-75
2021/10/04 14:49:25;;;;;;;6.10;3.78;;;;;;;;;;4992582;28;20051;-74
2021/10/04 14:51:52;;;;;;;5.63;3.40;;;;;;;;;;4993500;28;20042;-74
2021/10/04 14:54:20;;;;;;;6.63;3.88;;;;;;;;;;4994236;28;20034;-76
2021/10/04 14:56:48;;;;;;;6.28;3.53;;;;;;;;;;4994182;28;20392;-74